sensor_id;sensor_type;location;lat;lon;timestamp;P1;durP1;ratioP1;P2;durP2;ratioP2
37527;SDS011;23372;52.050;4.810;2023-06-14T00:01:36;7.55;;;3.30;;
37527;SDS011;23372;52.050;4.810;2023-06-14T00:04:03;7.70;;;4.78;;
37527;SDS011;23372;52.050;4.810;2023-06-14T00:06:30;7.38;;;4.18;;
37527;SDS011;23372;52.050;4.810;2023-06-14T00:08:55;7.55;;;3.90;;
37527;SDS011;23372;52.050;4.810;2023-06-14T00:11:21;7.05;;;3.58;;
37527;SDS011;23372;52.050;4.810;2023-06-14T00:13:47;6.57;;;3.13;;
37527;SDS011;23372;52.050;4.810;2023-06-14T00:16:12;9.13;;;3.53;;
37527;SDS011;23372;52.050;4.810;2023-06-14T00:18:38;6.57;;;4.22;;
37527;SDS011;23372;52.050;4.810;2023-06-14T00:21:05;5.47;;;3.60;;
37527;SDS011;23372;52.050;4.810;2023-06-14T00:23:30;6.70;;;3.30;;
37527;SDS011;23372;52.050;4.810;2023-06-14T00:25:56;8.45;;;3.38;;
37527;SDS011;23372;52.050;4.810;2023-06-14T00:28:22;5.82;;;3.35;;
37527;SDS011;23372;52.050;4.810;2023-06-14T00:30:47;8.02;;;3.30;;
37527;SDS011;23372;52.050;4.810;2023-06-14T00:33:13;7.95;;;3.67;;
37527;SDS011;23372;52.050;4.810;2023-06-14T00:35:38;10.07;;;3.78;;
37527;SDS011;23372;52.050;4.810;2023-06-14T00:38:05;8.93;;;3.47;;
37527;SDS011;23372;52.050;4.810;2023-06-14T00:40:30;7.82;;;3.70;;
37527;SDS011;23372;52.050;4.810;2023-06-14T00:42:56;7.90;;;3.40;;
37527;SDS011;23372;52.050;4.810;2023-06-14T00:45:22;8.98;;;3.97;;
37527;SDS011;23372;52.050;4.810;2023-06-14T00:47:47;8.30;;;3.88;;
37527;SDS011;23372;52.050;4.810;2023-06-14T00:50:15;9.98;;;3.67;;
37527;SDS011;23372;52.050;4.810;2023-06-14T00:52:41;5.40;;;3.17;;
37527;SDS011;23372;52.050;4.810;2023-06-14T00:55:07;6.80;;;3.40;;
37527;SDS011;23372;52.050;4.810;2023-06-14T00:57:33;5.20;;;3.60;;
37527;SDS011;23372;52.050;4.810;2023-06-14T01:00:02;10.88;;;3.55;;
37527;SDS011;23372;52.050;4.810;2023-06-14T01:02:29;8.50;;;3.83;;
37527;SDS011;23372;52.050;4.810;2023-06-14T01:04:55;6.55;;;3.80;;
37527;SDS011;23372;52.050;4.810;2023-06-14T01:13:05;8.00;;;3.75;;
37527;SDS011;23372;52.050;4.810;2023-06-14T01:15:38;8.52;;;3.90;;
37527;SDS011;23372;52.050;4.810;2023-06-14T01:18:04;5.75;;;3.40;;
37527;SDS011;23372;52.050;4.810;2023-06-14T01:20:31;10.80;;;3.80;;
37527;SDS011;23372;52.050;4.810;2023-06-14T01:22:58;12.48;;;3.50;;
37527;SDS011;23372;52.050;4.810;2023-06-14T01:25:25;6.20;;;3.83;;
37527;SDS011;23372;52.050;4.810;2023-06-14T01:27:58;5.70;;;3.50;;
37527;SDS011;23372;52.050;4.810;2023-06-14T01:30:27;6.85;;;4.25;;
37527;SDS011;23372;52.050;4.810;2023-06-14T01:32:54;6.32;;;3.13;;
37527;SDS011;23372;52.050;4.810;2023-06-14T01:35:21;9.30;;;3.38;;
37527;SDS011;23372;52.050;4.810;2023-06-14T01:37:47;6.15;;;2.78;;
37527;SDS011;23372;52.050;4.810;2023-06-14T01:40:14;4.45;;;3.03;;
37527;SDS011;23372;52.050;4.810;2023-06-14T01:42:41;7.80;;;3.35;;
37527;SDS011;23372;52.050;4.810;2023-06-14T01:45:09;6.55;;;3.55;;
37527;SDS011;23372;52.050;4.810;2023-06-14T01:47:35;6.20;;;3.58;;
37527;SDS011;23372;52.050;4.810;2023-06-14T01:50:02;7.53;;;3.45;;
37527;SDS011;23372;52.050;4.810;2023-06-14T01:52:28;6.05;;;3.50;;
37527;SDS011;23372;52.050;4.810;2023-06-14T01:54:54;9.75;;;3.58;;
37527;SDS011;23372;52.050;4.810;2023-06-14T01:57:20;6.88;;;3.40;;
37527;SDS011;23372;52.050;4.810;2023-06-14T01:59:47;4.97;;;3.25;;
37527;SDS011;23372;52.050;4.810;2023-06-14T02:02:13;4.88;;;3.03;;
37527;SDS011;23372;52.050;4.810;2023-06-14T02:04:39;8.80;;;4.10;;
37527;SDS011;23372;52.050;4.810;2023-06-14T02:07:05;9.55;;;3.58;;
37527;SDS011;23372;52.050;4.810;2023-06-14T02:09:31;7.03;;;3.70;;
37527;SDS011;23372;52.050;4.810;2023-06-14T02:11:56;7.18;;;3.35;;
37527;SDS011;23372;52.050;4.810;2023-06-14T02:14:22;6.18;;;3.58;;
37527;SDS011;23372;52.050;4.810;2023-06-14T02:16:48;5.85;;;3.05;;
37527;SDS011;23372;52.050;4.810;2023-06-14T02:19:17;8.27;;;3.50;;
37527;SDS011;23372;52.050;4.810;2023-06-14T02:21:43;9.27;;;3.80;;
37527;SDS011;23372;52.050;4.810;2023-06-14T02:24:10;7.32;;;3.75;;
37527;SDS011;23372;52.050;4.810;2023-06-14T02:26:35;8.90;;;3.53;;
37527;SDS011;23372;52.050;4.810;2023-06-14T02:29:05;6.43;;;3.58;;
37527;SDS011;23372;52.050;4.810;2023-06-14T02:31:31;9.50;;;3.83;;
37527;SDS011;23372;52.050;4.810;2023-06-14T02:33:57;7.57;;;3.20;;
37527;SDS011;23372;52.050;4.810;2023-06-14T02:36:22;6.15;;;3.50;;
37527;SDS011;23372;52.050;4.810;2023-06-14T02:38:48;7.47;;;3.53;;
37527;SDS011;23372;52.050;4.810;2023-06-14T02:41:13;11.02;;;3.88;;
37527;SDS011;23372;52.050;4.810;2023-06-14T02:43:39;8.52;;;3.10;;
37527;SDS011;23372;52.050;4.810;2023-06-14T02:46:05;8.75;;;3.65;;
37527;SDS011;23372;52.050;4.810;2023-06-14T02:48:31;8.27;;;3.17;;
37527;SDS011;23372;52.050;4.810;2023-06-14T02:50:56;6.47;;;3.33;;
37527;SDS011;23372;52.050;4.810;2023-06-14T02:53:22;9.48;;;3.38;;
37527;SDS011;23372;52.050;4.810;2023-06-14T02:55:48;6.00;;;3.50;;
37527;SDS011;23372;52.050;4.810;2023-06-14T02:58:13;6.55;;;3.03;;
37527;SDS011;23372;52.050;4.810;2023-06-14T03:00:39;6.65;;;3.45;;
37527;SDS011;23372;52.050;4.810;2023-06-14T03:03:06;6.90;;;3.47;;
37527;SDS011;23372;52.050;4.810;2023-06-14T03:05:38;5.90;;;3.10;;
37527;SDS011;23372;52.050;4.810;2023-06-14T03:08:12;9.10;;;3.53;;
37527;SDS011;23372;52.050;4.810;2023-06-14T03:10:42;6.85;;;3.90;;
37527;SDS011;23372;52.050;4.810;2023-06-14T03:13:08;6.18;;;3.47;;
37527;SDS011;23372;52.050;4.810;2023-06-14T03:15:35;9.07;;;3.95;;
37527;SDS011;23372;52.050;4.810;2023-06-14T03:18:01;9.25;;;3.72;;
37527;SDS011;23372;52.050;4.810;2023-06-14T03:20:27;10.90;;;4.30;;
37527;SDS011;23372;52.050;4.810;2023-06-14T03:22:54;9.50;;;4.03;;
37527;SDS011;23372;52.050;4.810;2023-06-14T03:25:20;6.80;;;3.95;;
37527;SDS011;23372;52.050;4.810;2023-06-14T03:27:47;6.55;;;4.13;;
37527;SDS011;23372;52.050;4.810;2023-06-14T03:30:12;9.50;;;4.45;;
37527;SDS011;23372;52.050;4.810;2023-06-14T03:32:38;5.70;;;3.45;;
37527;SDS011;23372;52.050;4.810;2023-06-14T03:35:04;9.85;;;3.88;;
37527;SDS011;23372;52.050;4.810;2023-06-14T03:37:30;9.45;;;3.92;;
37527;SDS011;23372;52.050;4.810;2023-06-14T03:39:56;10.18;;;3.85;;
37527;SDS011;23372;52.050;4.810;2023-06-14T03:42:21;13.20;;;4.15;;
37527;SDS011;23372;52.050;4.810;2023-06-14T03:44:47;7.25;;;4.30;;
37527;SDS011;23372;52.050;4.810;2023-06-14T03:47:12;6.15;;;4.18;;
37527;SDS011;23372;52.050;4.810;2023-06-14T03:49:38;9.48;;;4.53;;
37527;SDS011;23372;52.050;4.810;2023-06-14T03:52:04;10.10;;;3.90;;
37527;SDS011;23372;52.050;4.810;2023-06-14T03:54:30;11.93;;;4.20;;
37527;SDS011;23372;52.050;4.810;2023-06-14T03:56:57;7.22;;;4.07;;
37527;SDS011;23372;52.050;4.810;2023-06-14T03:59:23;6.47;;;3.38;;
37527;SDS011;23372;52.050;4.810;2023-06-14T04:01:49;5.65;;;3.70;;
37527;SDS011;23372;52.050;4.810;2023-06-14T04:04:15;7.70;;;3.40;;
37527;SDS011;23372;52.050;4.810;2023-06-14T04:06:43;8.25;;;4.13;;
37527;SDS011;23372;52.050;4.810;2023-06-14T04:09:09;8.40;;;3.72;;
37527;SDS011;23372;52.050;4.810;2023-06-14T04:11:34;8.75;;;3.72;;
37527;SDS011;23372;52.050;4.810;2023-06-14T04:14:01;5.75;;;3.03;;
37527;SDS011;23372;52.050;4.810;2023-06-14T04:16:27;10.35;;;3.85;;
37527;SDS011;23372;52.050;4.810;2023-06-14T04:18:54;7.00;;;3.20;;
37527;SDS011;23372;52.050;4.810;2023-06-14T04:21:20;9.32;;;3.30;;
37527;SDS011;23372;52.050;4.810;2023-06-14T04:23:46;7.50;;;3.17;;
37527;SDS011;23372;52.050;4.810;2023-06-14T04:26:11;8.93;;;3.88;;
37527;SDS011;23372;52.050;4.810;2023-06-14T04:28:37;10.13;;;3.55;;
37527;SDS011;23372;52.050;4.810;2023-06-14T04:31:05;13.30;;;3.38;;
37527;SDS011;23372;52.050;4.810;2023-06-14T04:33:33;12.10;;;3.72;;
37527;SDS011;23372;52.050;4.810;2023-06-14T04:36:08;11.15;;;4.03;;
37527;SDS011;23372;52.050;4.810;2023-06-14T04:38:37;8.25;;;3.65;;
37527;SDS011;23372;52.050;4.810;2023-06-14T04:41:03;6.97;;;3.20;;
37527;SDS011;23372;52.050;4.810;2023-06-14T04:43:29;5.55;;;2.83;;
37527;SDS011;23372;52.050;4.810;2023-06-14T04:45:56;11.57;;;3.20;;
37527;SDS011;23372;52.050;4.810;2023-06-14T04:48:22;6.22;;;3.00;;
37527;SDS011;23372;52.050;4.810;2023-06-14T04:50:48;7.93;;;2.95;;
37527;SDS011;23372;52.050;4.810;2023-06-14T04:53:17;6.13;;;2.97;;
37527;SDS011;23372;52.050;4.810;2023-06-14T04:55:46;11.57;;;3.50;;
37527;SDS011;23372;52.050;4.810;2023-06-14T04:58:12;5.57;;;2.85;;
37527;SDS011;23372;52.050;4.810;2023-06-14T05:00:38;5.70;;;3.22;;
37527;SDS011;23372;52.050;4.810;2023-06-14T05:03:03;4.53;;;2.78;;
37527;SDS011;23372;52.050;4.810;2023-06-14T05:05:30;8.18;;;3.65;;
37527;SDS011;23372;52.050;4.810;2023-06-14T05:07:57;11.45;;;3.95;;
37527;SDS011;23372;52.050;4.810;2023-06-14T05:10:22;4.68;;;2.97;;
37527;SDS011;23372;52.050;4.810;2023-06-14T05:12:49;7.25;;;3.28;;
37527;SDS011;23372;52.050;4.810;2023-06-14T05:15:15;5.78;;;3.38;;
37527;SDS011;23372;52.050;4.810;2023-06-14T05:17:41;6.20;;;2.80;;
37527;SDS011;23372;52.050;4.810;2023-06-14T05:20:07;7.82;;;3.03;;
37527;SDS011;23372;52.050;4.810;2023-06-14T05:22:35;5.63;;;3.08;;
37527;SDS011;23372;52.050;4.810;2023-06-14T05:25:01;9.27;;;3.80;;
37527;SDS011;23372;52.050;4.810;2023-06-14T05:27:27;19.00;;;3.55;;
37527;SDS011;23372;52.050;4.810;2023-06-14T05:29:52;7.32;;;3.20;;
37527;SDS011;23372;52.050;4.810;2023-06-14T05:32:20;9.65;;;3.03;;
37527;SDS011;23372;52.050;4.810;2023-06-14T05:34:46;6.50;;;3.38;;
37527;SDS011;23372;52.050;4.810;2023-06-14T05:37:11;7.65;;;3.17;;
37527;SDS011;23372;52.050;4.810;2023-06-14T05:39:38;6.10;;;3.40;;
37527;SDS011;23372;52.050;4.810;2023-06-14T05:42:03;11.52;;;4.18;;
37527;SDS011;23372;52.050;4.810;2023-06-14T05:44:29;10.20;;;3.42;;
37527;SDS011;23372;52.050;4.810;2023-06-14T05:46:55;11.00;;;3.55;;
37527;SDS011;23372;52.050;4.810;2023-06-14T05:49:20;9.10;;;3.35;;
37527;SDS011;23372;52.050;4.810;2023-06-14T05:51:46;7.43;;;3.33;;
37527;SDS011;23372;52.050;4.810;2023-06-14T05:54:11;8.90;;;3.00;;
37527;SDS011;23372;52.050;4.810;2023-06-14T05:56:37;9.00;;;3.17;;
37527;SDS011;23372;52.050;4.810;2023-06-14T05:59:02;6.57;;;3.10;;
37527;SDS011;23372;52.050;4.810;2023-06-14T06:01:28;7.28;;;3.17;;
37527;SDS011;23372;52.050;4.810;2023-06-14T06:03:53;10.55;;;3.65;;
37527;SDS011;23372;52.050;4.810;2023-06-14T06:06:19;5.93;;;3.40;;
37527;SDS011;23372;52.050;4.810;2023-06-14T06:08:45;8.05;;;3.40;;
37527;SDS011;23372;52.050;4.810;2023-06-14T06:11:11;10.23;;;3.72;;
37527;SDS011;23372;52.050;4.810;2023-06-14T06:13:36;10.85;;;3.22;;
37527;SDS011;23372;52.050;4.810;2023-06-14T06:16:04;11.50;;;3.70;;
37527;SDS011;23372;52.050;4.810;2023-06-14T06:18:29;10.43;;;3.33;;
37527;SDS011;23372;52.050;4.810;2023-06-14T06:20:55;7.75;;;3.33;;
37527;SDS011;23372;52.050;4.810;2023-06-14T06:23:21;8.40;;;3.42;;
37527;SDS011;23372;52.050;4.810;2023-06-14T06:25:46;10.85;;;3.55;;
37527;SDS011;23372;52.050;4.810;2023-06-14T06:28:12;11.75;;;3.70;;
37527;SDS011;23372;52.050;4.810;2023-06-14T06:30:38;8.55;;;3.72;;
37527;SDS011;23372;52.050;4.810;2023-06-14T06:33:03;10.43;;;3.40;;
37527;SDS011;23372;52.050;4.810;2023-06-14T06:35:29;4.07;;;2.90;;
37527;SDS011;23372;52.050;4.810;2023-06-14T06:37:55;7.70;;;3.33;;
37527;SDS011;23372;52.050;4.810;2023-06-14T06:40:21;10.98;;;3.88;;
37527;SDS011;23372;52.050;4.810;2023-06-14T06:42:47;6.45;;;3.33;;
37527;SDS011;23372;52.050;4.810;2023-06-14T06:45:13;8.40;;;4.00;;
37527;SDS011;23372;52.050;4.810;2023-06-14T06:47:38;7.53;;;3.10;;
37527;SDS011;23372;52.050;4.810;2023-06-14T06:50:04;7.47;;;3.22;;
37527;SDS011;23372;52.050;4.810;2023-06-14T06:52:31;7.60;;;3.90;;
37527;SDS011;23372;52.050;4.810;2023-06-14T06:54:56;5.85;;;3.15;;
37527;SDS011;23372;52.050;4.810;2023-06-14T06:57:22;6.32;;;3.25;;
37527;SDS011;23372;52.050;4.810;2023-06-14T06:59:48;5.45;;;3.17;;
37527;SDS011;23372;52.050;4.810;2023-06-14T07:02:14;6.20;;;3.45;;
37527;SDS011;23372;52.050;4.810;2023-06-14T07:04:40;9.25;;;3.47;;
37527;SDS011;23372;52.050;4.810;2023-06-14T07:07:06;7.50;;;3.03;;
37527;SDS011;23372;52.050;4.810;2023-06-14T07:09:31;7.60;;;3.10;;
37527;SDS011;23372;52.050;4.810;2023-06-14T07:11:57;9.40;;;3.22;;
37527;SDS011;23372;52.050;4.810;2023-06-14T07:14:23;7.78;;;3.25;;
37527;SDS011;23372;52.050;4.810;2023-06-14T07:16:49;9.48;;;3.30;;
37527;SDS011;23372;52.050;4.810;2023-06-14T07:19:14;13.50;;;3.45;;
37527;SDS011;23372;52.050;4.810;2023-06-14T07:21:40;14.70;;;3.28;;
37527;SDS011;23372;52.050;4.810;2023-06-14T07:24:06;9.25;;;3.20;;
37527;SDS011;23372;52.050;4.810;2023-06-14T07:26:32;7.35;;;3.25;;
37527;SDS011;23372;52.050;4.810;2023-06-14T07:28:58;11.20;;;3.28;;
37527;SDS011;23372;52.050;4.810;2023-06-14T07:31:24;7.57;;;2.92;;
37527;SDS011;23372;52.050;4.810;2023-06-14T07:33:50;7.72;;;2.90;;
37527;SDS011;23372;52.050;4.810;2023-06-14T07:36:15;6.90;;;2.83;;
37527;SDS011;23372;52.050;4.810;2023-06-14T07:38:42;13.98;;;3.15;;
37527;SDS011;23372;52.050;4.810;2023-06-14T07:41:08;5.85;;;2.90;;
37527;SDS011;23372;52.050;4.810;2023-06-14T07:43:34;10.68;;;3.20;;
37527;SDS011;23372;52.050;4.810;2023-06-14T07:46:00;6.90;;;2.97;;
37527;SDS011;23372;52.050;4.810;2023-06-14T07:48:25;7.25;;;3.00;;
37527;SDS011;23372;52.050;4.810;2023-06-14T07:50:51;7.25;;;2.70;;
37527;SDS011;23372;52.050;4.810;2023-06-14T07:53:17;8.65;;;3.35;;
37527;SDS011;23372;52.050;4.810;2023-06-14T07:55:42;7.43;;;3.00;;
37527;SDS011;23372;52.050;4.810;2023-06-14T07:58:08;7.43;;;3.10;;
37527;SDS011;23372;52.050;4.810;2023-06-14T08:00:34;10.93;;;3.40;;
37527;SDS011;23372;52.050;4.810;2023-06-14T08:03:00;5.63;;;3.35;;
37527;SDS011;23372;52.050;4.810;2023-06-14T08:05:25;7.35;;;3.38;;
37527;SDS011;23372;52.050;4.810;2023-06-14T08:07:51;7.35;;;3.30;;
37527;SDS011;23372;52.050;4.810;2023-06-14T08:10:17;7.13;;;2.95;;
37527;SDS011;23372;52.050;4.810;2023-06-14T08:12:43;6.78;;;3.50;;
37527;SDS011;23372;52.050;4.810;2023-06-14T08:15:09;8.52;;;3.22;;
37527;SDS011;23372;52.050;4.810;2023-06-14T08:17:35;7.70;;;3.20;;
37527;SDS011;23372;52.050;4.810;2023-06-14T08:20:01;8.85;;;3.30;;
37527;SDS011;23372;52.050;4.810;2023-06-14T08:22:27;9.48;;;3.15;;
37527;SDS011;23372;52.050;4.810;2023-06-14T08:24:56;7.10;;;3.08;;
37527;SDS011;23372;52.050;4.810;2023-06-14T08:27:22;8.77;;;3.13;;
37527;SDS011;23372;52.050;4.810;2023-06-14T08:29:48;6.88;;;3.00;;
37527;SDS011;23372;52.050;4.810;2023-06-14T08:32:13;7.40;;;2.67;;
37527;SDS011;23372;52.050;4.810;2023-06-14T08:34:39;5.15;;;3.03;;
37527;SDS011;23372;52.050;4.810;2023-06-14T08:37:05;11.20;;;3.05;;
37527;SDS011;23372;52.050;4.810;2023-06-14T08:39:31;9.00;;;2.70;;
37527;SDS011;23372;52.050;4.810;2023-06-14T08:41:57;5.05;;;2.95;;
37527;SDS011;23372;52.050;4.810;2023-06-14T08:44:23;5.60;;;3.03;;
37527;SDS011;23372;52.050;4.810;2023-06-14T08:46:49;7.07;;;3.22;;
37527;SDS011;23372;52.050;4.810;2023-06-14T08:49:17;6.43;;;3.03;;
37527;SDS011;23372;52.050;4.810;2023-06-14T08:51:43;6.55;;;3.20;;
37527;SDS011;23372;52.050;4.810;2023-06-14T08:54:09;7.60;;;3.38;;
37527;SDS011;23372;52.050;4.810;2023-06-14T08:56:37;7.97;;;2.90;;
37527;SDS011;23372;52.050;4.810;2023-06-14T08:59:03;6.65;;;2.85;;
37527;SDS011;23372;52.050;4.810;2023-06-14T09:01:34;6.18;;;2.70;;
37527;SDS011;23372;52.050;4.810;2023-06-14T09:04:02;6.13;;;2.45;;
37527;SDS011;23372;52.050;4.810;2023-06-14T09:06:30;5.38;;;3.42;;
37527;SDS011;23372;52.050;4.810;2023-06-14T09:08:56;4.63;;;3.05;;
37527;SDS011;23372;52.050;4.810;2023-06-14T09:11:22;7.20;;;2.67;;
37527;SDS011;23372;52.050;4.810;2023-06-14T09:13:48;5.97;;;2.55;;
37527;SDS011;23372;52.050;4.810;2023-06-14T09:16:15;4.97;;;3.03;;
37527;SDS011;23372;52.050;4.810;2023-06-14T09:18:42;7.50;;;2.20;;
37527;SDS011;23372;52.050;4.810;2023-06-14T09:21:15;8.52;;;2.60;;
37527;SDS011;23372;52.050;4.810;2023-06-14T09:23:42;5.00;;;2.40;;
37527;SDS011;23372;52.050;4.810;2023-06-14T09:26:16;3.70;;;2.47;;
37527;SDS011;23372;52.050;4.810;2023-06-14T09:28:48;8.00;;;2.70;;
37527;SDS011;23372;52.050;4.810;2023-06-14T09:31:15;6.70;;;2.33;;
37527;SDS011;23372;52.050;4.810;2023-06-14T09:33:42;4.50;;;2.30;;
37527;SDS011;23372;52.050;4.810;2023-06-14T09:36:21;4.43;;;2.10;;
37527;SDS011;23372;52.050;4.810;2023-06-14T09:38:52;3.20;;;2.05;;
37527;SDS011;23372;52.050;4.810;2023-06-14T09:41:19;3.38;;;2.08;;
37527;SDS011;23372;52.050;4.810;2023-06-14T09:43:46;8.38;;;2.13;;
37527;SDS011;23372;52.050;4.810;2023-06-14T09:46:12;4.65;;;2.00;;
37527;SDS011;23372;52.050;4.810;2023-06-14T09:48:38;3.75;;;1.98;;
37527;SDS011;23372;52.050;4.810;2023-06-14T09:51:07;6.03;;;2.00;;
37527;SDS011;23372;52.050;4.810;2023-06-14T09:53:38;5.70;;;2.47;;
37527;SDS011;23372;52.050;4.810;2023-06-14T09:56:06;5.05;;;2.00;;
37527;SDS011;23372;52.050;4.810;2023-06-14T09:58:32;6.30;;;2.15;;
37527;SDS011;23372;52.050;4.810;2023-06-14T10:01:02;4.95;;;2.17;;
37527;SDS011;23372;52.050;4.810;2023-06-14T10:03:28;3.95;;;1.80;;
37527;SDS011;23372;52.050;4.810;2023-06-14T10:05:55;4.75;;;2.00;;
37527;SDS011;23372;52.050;4.810;2023-06-14T10:08:27;10.80;;;1.67;;
37527;SDS011;23372;52.050;4.810;2023-06-14T10:10:58;5.07;;;1.83;;
37527;SDS011;23372;52.050;4.810;2023-06-14T10:13:23;7.18;;;1.90;;
37527;SDS011;23372;52.050;4.810;2023-06-14T10:20:51;3.90;;;1.70;;
37527;SDS011;23372;52.050;4.810;2023-06-14T10:23:29;3.17;;;1.80;;
37527;SDS011;23372;52.050;4.810;2023-06-14T10:25:58;5.60;;;1.92;;
37527;SDS011;23372;52.050;4.810;2023-06-14T10:28:25;6.15;;;1.70;;
37527;SDS011;23372;52.050;4.810;2023-06-14T10:31:04;2.45;;;1.65;;
37527;SDS011;23372;52.050;4.810;2023-06-14T10:33:36;2.35;;;1.67;;
37527;SDS011;23372;52.050;4.810;2023-06-14T10:36:08;4.47;;;1.60;;
37527;SDS011;23372;52.050;4.810;2023-06-14T10:38:59;1.83;;;1.60;;
37527;SDS011;23372;52.050;4.810;2023-06-14T10:41:29;3.70;;;1.70;;
37527;SDS011;23372;52.050;4.810;2023-06-14T10:46:39;4.78;;;1.75;;
37527;SDS011;23372;52.050;4.810;2023-06-14T10:49:05;4.60;;;1.85;;
37527;SDS011;23372;52.050;4.810;2023-06-14T10:51:41;5.50;;;1.40;;
37527;SDS011;23372;52.050;4.810;2023-06-14T10:54:14;6.63;;;1.73;;
37527;SDS011;23372;52.050;4.810;2023-06-14T10:56:47;7.32;;;1.40;;
37527;SDS011;23372;52.050;4.810;2023-06-14T10:59:16;2.80;;;1.42;;
37527;SDS011;23372;52.050;4.810;2023-06-14T11:04:11;2.30;;;1.48;;
37527;SDS011;23372;52.050;4.810;2023-06-14T11:06:47;3.75;;;1.55;;
37527;SDS011;23372;52.050;4.810;2023-06-14T11:09:59;4.30;;;1.42;;
37527;SDS011;23372;52.050;4.810;2023-06-14T11:12:03;3.30;;;1.58;;
37527;SDS011;23372;52.050;4.810;2023-06-14T11:14:30;2.50;;;1.48;;
37527;SDS011;23372;52.050;4.810;2023-06-14T11:16:56;1.80;;;1.20;;
37527;SDS011;23372;52.050;4.810;2023-06-14T11:19:21;6.40;;;1.67;;
37527;SDS011;23372;52.050;4.810;2023-06-14T11:21:48;2.58;;;1.27;;
37527;SDS011;23372;52.050;4.810;2023-06-14T11:24:14;2.42;;;1.20;;
37527;SDS011;23372;52.050;4.810;2023-06-14T11:26:40;1.80;;;1.27;;
37527;SDS011;23372;52.050;4.810;2023-06-14T11:29:05;3.67;;;1.67;;
37527;SDS011;23372;52.050;4.810;2023-06-14T11:31:31;3.00;;;1.30;;
37527;SDS011;23372;52.050;4.810;2023-06-14T11:33:58;2.25;;;1.63;;
37527;SDS011;23372;52.050;4.810;2023-06-14T11:36:28;2.95;;;1.40;;
37527;SDS011;23372;52.050;4.810;2023-06-14T11:39:01;4.43;;;1.30;;
37527;SDS011;23372;52.050;4.810;2023-06-14T11:41:36;3.28;;;1.45;;
37527;SDS011;23372;52.050;4.810;2023-06-14T11:44:03;2.08;;;1.30;;
37527;SDS011;23372;52.050;4.810;2023-06-14T11:46:29;4.68;;;1.48;;
37527;SDS011;23372;52.050;4.810;2023-06-14T11:48:54;5.97;;;1.40;;
37527;SDS011;23372;52.050;4.810;2023-06-14T11:51:20;10.75;;;1.90;;
37527;SDS011;23372;52.050;4.810;2023-06-14T11:53:46;3.95;;;1.45;;
37527;SDS011;23372;52.050;4.810;2023-06-14T11:56:12;3.17;;;1.33;;
37527;SDS011;23372;52.050;4.810;2023-06-14T11:58:38;2.85;;;1.23;;
37527;SDS011;23372;52.050;4.810;2023-06-14T12:01:03;4.63;;;1.80;;
37527;SDS011;23372;52.050;4.810;2023-06-14T12:03:29;4.30;;;1.50;;
37527;SDS011;23372;52.050;4.810;2023-06-14T12:06:04;5.22;;;1.27;;
37527;SDS011;23372;52.050;4.810;2023-06-14T12:08:32;3.85;;;1.63;;
37527;SDS011;23372;52.050;4.810;2023-06-14T12:11:10;2.38;;;1.40;;
37527;SDS011;23372;52.050;4.810;2023-06-14T12:13:40;3.03;;;1.30;;
37527;SDS011;23372;52.050;4.810;2023-06-14T12:16:07;4.85;;;1.77;;
37527;SDS011;23372;52.050;4.810;2023-06-14T12:18:37;6.22;;;1.90;;
37527;SDS011;23372;52.050;4.810;2023-06-14T12:21:06;6.00;;;1.55;;
37527;SDS011;23372;52.050;4.810;2023-06-14T12:23:39;3.90;;;1.35;;
37527;SDS011;23372;52.050;4.810;2023-06-14T12:26:08;5.07;;;1.58;;
37527;SDS011;23372;52.050;4.810;2023-06-14T12:28:33;6.75;;;1.70;;
37527;SDS011;23372;52.050;4.810;2023-06-14T12:30:59;3.85;;;1.40;;
37527;SDS011;23372;52.050;4.810;2023-06-14T12:33:24;3.38;;;1.20;;
37527;SDS011;23372;52.050;4.810;2023-06-14T12:35:50;2.78;;;1.30;;
37527;SDS011;23372;52.050;4.810;2023-06-14T12:38:19;2.70;;;1.45;;
37527;SDS011;23372;52.050;4.810;2023-06-14T12:40:46;4.25;;;1.58;;
37527;SDS011;23372;52.050;4.810;2023-06-14T12:43:11;2.50;;;1.58;;
37527;SDS011;23372;52.050;4.810;2023-06-14T12:45:37;3.22;;;1.17;;
37527;SDS011;23372;52.050;4.810;2023-06-14T12:48:03;5.03;;;1.60;;
37527;SDS011;23372;52.050;4.810;2023-06-14T12:50:29;2.88;;;1.50;;
37527;SDS011;23372;52.050;4.810;2023-06-14T12:52:55;2.55;;;1.40;;
37527;SDS011;23372;52.050;4.810;2023-06-14T12:55:20;3.83;;;1.20;;
37527;SDS011;23372;52.050;4.810;2023-06-14T12:57:46;2.63;;;1.48;;
37527;SDS011;23372;52.050;4.810;2023-06-14T13:00:14;2.95;;;1.40;;
37527;SDS011;23372;52.050;4.810;2023-06-14T13:02:40;5.25;;;1.20;;
37527;SDS011;23372;52.050;4.810;2023-06-14T13:05:06;1.98;;;1.40;;
37527;SDS011;23372;52.050;4.810;2023-06-14T13:07:32;6.15;;;1.95;;
37527;SDS011;23372;52.050;4.810;2023-06-14T13:09:57;4.25;;;1.42;;
37527;SDS011;23372;52.050;4.810;2023-06-14T13:12:23;4.40;;;2.03;;
37527;SDS011;23372;52.050;4.810;2023-06-14T13:14:49;4.05;;;1.30;;
37527;SDS011;23372;52.050;4.810;2023-06-14T13:17:14;4.53;;;1.73;;
37527;SDS011;23372;52.050;4.810;2023-06-14T13:19:40;2.83;;;1.55;;
37527;SDS011;23372;52.050;4.810;2023-06-14T13:22:07;4.93;;;1.80;;
37527;SDS011;23372;52.050;4.810;2023-06-14T13:24:33;2.85;;;1.20;;
37527;SDS011;23372;52.050;4.810;2023-06-14T13:26:59;3.45;;;1.55;;
37527;SDS011;23372;52.050;4.810;2023-06-14T13:29:25;5.63;;;1.70;;
37527;SDS011;23372;52.050;4.810;2023-06-14T13:31:51;2.42;;;1.80;;
37527;SDS011;23372;52.050;4.810;2023-06-14T13:34:17;4.80;;;1.65;;
37527;SDS011;23372;52.050;4.810;2023-06-14T13:36:43;1.73;;;1.27;;
37527;SDS011;23372;52.050;4.810;2023-06-14T13:39:09;6.43;;;1.30;;
37527;SDS011;23372;52.050;4.810;2023-06-14T13:41:35;2.80;;;1.60;;
37527;SDS011;23372;52.050;4.810;2023-06-14T13:44:01;1.60;;;1.38;;
37527;SDS011;23372;52.050;4.810;2023-06-14T13:46:29;3.13;;;1.50;;
37527;SDS011;23372;52.050;4.810;2023-06-14T13:48:55;3.63;;;1.75;;
37527;SDS011;23372;52.050;4.810;2023-06-14T13:51:20;4.25;;;1.15;;
37527;SDS011;23372;52.050;4.810;2023-06-14T13:53:47;1.48;;;1.30;;
37527;SDS011;23372;52.050;4.810;2023-06-14T13:56:13;3.00;;;1.15;;
37527;SDS011;23372;52.050;4.810;2023-06-14T13:58:39;2.72;;;1.20;;
37527;SDS011;23372;52.050;4.810;2023-06-14T14:01:05;2.13;;;1.20;;
37527;SDS011;23372;52.050;4.810;2023-06-14T14:03:30;4.30;;;1.30;;
37527;SDS011;23372;52.050;4.810;2023-06-14T14:05:57;2.90;;;1.17;;
37527;SDS011;23372;52.050;4.810;2023-06-14T14:08:22;2.63;;;1.17;;
37527;SDS011;23372;52.050;4.810;2023-06-14T14:10:48;5.88;;;1.50;;
37527;SDS011;23372;52.050;4.810;2023-06-14T14:13:13;4.80;;;1.58;;
37527;SDS011;23372;52.050;4.810;2023-06-14T14:15:39;5.05;;;1.77;;
37527;SDS011;23372;52.050;4.810;2023-06-14T14:18:05;5.40;;;1.60;;
37527;SDS011;23372;52.050;4.810;2023-06-14T14:20:30;2.78;;;1.92;;
37527;SDS011;23372;52.050;4.810;2023-06-14T14:22:56;2.70;;;1.60;;
37527;SDS011;23372;52.050;4.810;2023-06-14T14:25:22;2.70;;;1.40;;
37527;SDS011;23372;52.050;4.810;2023-06-14T14:27:47;2.00;;;1.50;;
37527;SDS011;23372;52.050;4.810;2023-06-14T14:30:13;6.63;;;2.03;;
37527;SDS011;23372;52.050;4.810;2023-06-14T14:32:42;2.33;;;1.40;;
37527;SDS011;23372;52.050;4.810;2023-06-14T14:35:09;2.60;;;1.52;;
37527;SDS011;23372;52.050;4.810;2023-06-14T14:37:35;4.82;;;1.40;;
37527;SDS011;23372;52.050;4.810;2023-06-14T14:40:01;2.75;;;1.73;;
37527;SDS011;23372;52.050;4.810;2023-06-14T14:42:28;3.10;;;1.33;;
37527;SDS011;23372;52.050;4.810;2023-06-14T14:44:54;2.65;;;1.50;;
37527;SDS011;23372;52.050;4.810;2023-06-14T14:47:19;3.85;;;1.30;;
37527;SDS011;23372;52.050;4.810;2023-06-14T14:49:45;3.03;;;1.20;;
37527;SDS011;23372;52.050;4.810;2023-06-14T14:52:10;2.90;;;1.60;;
37527;SDS011;23372;52.050;4.810;2023-06-14T14:54:38;3.72;;;1.42;;
37527;SDS011;23372;52.050;4.810;2023-06-14T14:57:04;2.72;;;1.23;;
37527;SDS011;23372;52.050;4.810;2023-06-14T14:59:30;5.38;;;1.80;;